KBEC/BEC METAR and TAF weather

Enter ICAO airport designator
Station Type Date Time Source
KBEC METAR 2022/09/26 09:35 UTC NOAA

KBEC 260935Z AUTO 32006KT 10SM CLR 15/06 A3015 RMK AO2 T01470060


Station Type Date Time Source
KBEC Decoded METAR 2022/09/26 09:35 UTC NOAA

Station name not available
Sep 26, 2022 - 05:35 AM EDT / 2022.09.26 0935 UTC
Wind: from the NW (320 degrees) at 7 MPH (6 KT):0
Visibility: 10 mile(s):0
Sky conditions: clear
Temperature: 58.5 F (14.7 C)
Dew Point: 42.8 F (6.0 C)
Relative Humidity: 55%
Pressure (altimeter): 30.15 in. Hg (1020 hPa)
ob: KBEC 260935Z AUTO 32006KT 10SM CLR 15/06 A3015 RMK AO2 T01470060
cycle: 9

Station Type Date Time Source
KBEC TAF UTC NOAA

Error!

Example: see airport list